Time;durP1;ratioP1;P1;durP2;ratioP2;P2;SDS_P1;SDS_P2;PMS_P1;PMS_P2;Temp;Humidity;BMP_temperature;BMP_pressure;BME280_temperature;BME280_humidity;BME280_pressure;Samples;Min_cycle;Max_cycle;Signal;HPM_P1;HPM_P2
2021/09/21 00:01:52;;;;;;;9.20;5.75;;;12.40;99.90;;;;;;7433346;19;20333;-79
2021/09/21 00:04:26;;;;;;;9.98;5.97;;;12.40;99.90;;;;;;7428345;19;20011;-80
2021/09/21 00:06:56;;;;;;;9.52;5.85;;;12.60;99.90;;;;;;7423792;19;20089;-79
2021/09/21 00:09:29;;;;;;;9.80;5.97;;;12.60;99.90;;;;;;7426626;19;20009;-80
2021/09/21 00:12:01;;;;;;;8.55;4.72;;;12.60;99.90;;;;;;7426312;19;20051;-80
2021/09/21 00:14:30;;;;;;;9.02;5.28;;;12.50;99.90;;;;;;7428225;19;20393;-81
2021/09/21 00:17:03;;;;;;;7.00;5.00;;;12.40;99.90;;;;;;7428007;19;20042;-82
2021/09/21 00:19:35;;;;;;;11.48;5.57;;;12.40;99.90;;;;;;7432978;19;20010;-85
2021/09/21 00:22:07;;;;;;;12.40;6.15;;;12.30;99.90;;;;;;7435706;19;20010;-81
2021/09/21 00:24:37;;;;;;;10.45;5.72;;;12.40;99.90;;;;;;7433638;19;20012;-81
2021/09/21 00:27:09;;;;;;;8.27;4.90;;;12.40;99.90;;;;;;7435260;19;20034;-82
2021/09/21 00:29:42;;;;;;;8.73;5.85;;;12.40;99.90;;;;;;7437755;19;20011;-83
2021/09/21 00:32:16;;;;;;;12.70;6.10;;;12.30;99.90;;;;;;7435623;19;20040;-82
2021/09/21 00:34:48;;;;;;;10.90;5.93;;;12.50;99.90;;;;;;7432383;19;20017;-81
2021/09/21 00:37:22;;;;;;;12.35;5.95;;;12.50;99.90;;;;;;7432354;19;20002;-82
2021/09/21 00:39:52;;;;;;;11.25;5.70;;;12.70;99.90;;;;;;7435452;19;20039;-84
2021/09/21 00:42:31;;;;;;;8.80;5.45;;;12.70;99.90;;;;;;7435000;19;20026;-83
2021/09/21 00:45:03;;;;;;;10.50;5.57;;;12.90;99.90;;;;;;7432215;19;20025;-82
2021/09/21 00:47:33;;;;;;;9.63;5.47;;;12.90;99.90;;;;;;7430688;19;20007;-81
2021/09/21 00:50:03;;;;;;;12.75;5.55;;;12.80;99.90;;;;;;7431568;19;20015;-83
2021/09/21 00:52:36;;;;;;;9.77;5.20;;;12.80;99.90;;;;;;7433862;19;20015;-82
2021/09/21 00:55:09;;;;;;;9.15;5.55;;;12.80;99.90;;;;;;7434927;19;20006;-83
2021/09/21 00:57:41;;;;;;;9.00;5.30;;;12.60;99.90;;;;;;7430406;19;20014;-81
2021/09/21 01:00:14;;;;;;;9.77;5.45;;;12.50;99.90;;;;;;7427962;19;20141;-82
2021/09/21 01:02:43;;;;;;;9.20;5.18;;;12.40;99.90;;;;;;7432755;19;20010;-82
2021/09/21 01:05:14;;;;;;;9.43;4.72;;;12.30;99.90;;;;;;7427768;19;19998;-82
2021/09/21 01:07:46;;;;;;;10.32;5.00;;;12.30;99.90;;;;;;7427097;19;20030;-80
2021/09/21 01:10:19;;;;;;;8.80;4.80;;;12.20;99.90;;;;;;7426635;19;20298;-82
2021/09/21 01:12:51;;;;;;;12.57;5.32;;;12.30;99.90;;;;;;7426143;19;20010;-81
2021/09/21 01:15:21;;;;;;;10.13;5.53;;;12.20;99.90;;;;;;7425616;19;20479;-81
2021/09/21 01:17:56;;;;;;;7.95;5.18;;;12.20;99.90;;;;;;7427770;19;20007;-81
2021/09/21 01:20:26;;;;;;;9.70;5.78;;;12.20;99.90;;;;;;7423542;19;20340;-80
2021/09/21 01:23:03;;;;;;;8.50;4.95;;;12.20;99.90;;;;;;7422391;19;20015;-81
2021/09/21 01:25:34;;;;;;;10.15;4.90;;;12.20;99.90;;;;;;7421241;19;20011;-80
2021/09/21 01:28:03;;;;;;;7.35;4.65;;;12.10;99.90;;;;;;7422621;19;20042;-81
2021/09/21 01:30:35;;;;;;;8.70;4.93;;;12.10;99.90;;;;;;7423367;19;20023;-81
2021/09/21 01:33:09;;;;;;;7.82;4.80;;;12.10;99.90;;;;;;7423061;19;20050;-80
2021/09/21 01:35:43;;;;;;;7.15;4.53;;;12.00;99.90;;;;;;7422301;19;20007;-81
2021/09/21 01:38:15;;;;;;;7.18;4.50;;;12.00;99.90;;;;;;7430721;19;20031;-83
2021/09/21 01:40:45;;;;;;;8.57;4.60;;;12.00;99.90;;;;;;7424501;19;20018;-80
2021/09/21 01:43:14;;;;;;;10.32;5.15;;;12.00;99.90;;;;;;7423565;19;20007;-81
2021/09/21 01:45:44;;;;;;;8.13;4.72;;;11.90;99.90;;;;;;7423355;19;20018;-80
2021/09/21 01:48:13;;;;;;;7.90;4.57;;;11.80;99.90;;;;;;7427773;19;20010;-83
2021/09/21 01:50:47;;;;;;;9.18;4.90;;;11.80;99.90;;;;;;7431167;19;20050;-81
2021/09/21 01:53:25;;;;;;;8.27;5.05;;;11.80;99.90;;;;;;7427702;19;20014;-82
2021/09/21 02:01:25;;;;;;;9.45;4.03;;;11.90;99.90;;;;;;7428697;19;20014;-82
2021/09/21 02:03:58;;;;;;;10.38;4.57;;;11.80;99.90;;;;;;7429723;19;20006;-82
2021/09/21 02:06:34;;;;;;;9.98;5.03;;;11.80;99.90;;;;;;7431982;19;20011;-81
2021/09/21 02:09:09;;;;;;;10.07;4.47;;;11.80;99.90;;;;;;7432892;19;20058;-82
2021/09/21 02:11:40;;;;;;;8.73;4.47;;;11.80;99.90;;;;;;7430917;19;20018;-83
2021/09/21 02:14:12;;;;;;;6.97;4.30;;;11.80;99.90;;;;;;7432925;19;20018;-82
2021/09/21 02:16:43;;;;;;;7.05;4.18;;;11.90;99.90;;;;;;7427937;19;20018;-82
2021/09/21 02:19:19;;;;;;;7.57;4.63;;;12.00;99.90;;;;;;7432464;19;20037;-83
2021/09/21 02:21:52;;;;;;;10.30;5.07;;;12.10;99.90;;;;;;7428054;19;20023;-82
2021/09/21 02:24:27;;;;;;;7.93;4.88;;;12.20;99.90;;;;;;7433779;19;20015;-83
2021/09/21 02:27:02;;;;;;;10.18;4.40;;;12.30;99.80;;;;;;7433378;19;20019;-83
2021/09/21 02:29:31;;;;;;;9.05;4.45;;;12.20;99.50;;;;;;7427643;19;20007;-80
2021/09/21 02:32:01;;;;;;;6.13;3.58;;;12.20;99.60;;;;;;7429415;19;20018;-83
2021/09/21 02:34:31;;;;;;;8.02;4.43;;;12.10;99.70;;;;;;7429166;19;19999;-81
2021/09/21 02:37:01;;;;;;;9.38;4.47;;;12.10;99.50;;;;;;7430931;19;20006;-83
2021/09/21 02:39:33;;;;;;;10.77;4.82;;;12.10;99.50;;;;;;7425738;19;20017;-82
2021/09/21 02:42:03;;;;;;;6.93;4.30;;;12.10;99.30;;;;;;7430169;19;20014;-82
2021/09/21 02:44:34;;;;;;;11.18;4.45;;;12.00;99.50;;;;;;7430642;19;20011;-81
2021/09/21 02:47:04;;;;;;;8.98;4.45;;;11.90;99.50;;;;;;7427112;19;20010;-82
2021/09/21 02:52:24;;;;;;;6.47;4.10;;;11.80;99.80;;;;;;7421083;19;20014;-80
2021/09/21 02:54:56;;;;;;;8.10;4.15;;;11.80;99.90;;;;;;7426426;19;20002;-81
2021/09/21 02:57:27;;;;;;;8.63;4.35;;;11.80;99.90;;;;;;7430170;19;20065;-81
2021/09/21 02:59:57;;;;;;;8.43;4.63;;;11.80;99.90;;;;;;7428020;19;20843;-80
2021/09/21 03:02:31;;;;;;;8.55;4.28;;;11.80;99.90;;;;;;7428665;19;20013;-81
2021/09/21 03:05:04;;;;;;;8.10;4.88;;;11.80;99.90;;;;;;7424540;19;20010;-81
2021/09/21 03:07:37;;;;;;;9.55;4.57;;;11.80;99.90;;;;;;7425961;19;20030;-81
2021/09/21 03:10:19;;;;;;;7.30;4.63;;;11.80;99.90;;;;;;7427729;19;20372;-80
2021/09/21 03:18:13;;;;;;;8.98;4.30;;;11.90;99.90;;;;;;7428013;19;20017;-81
2021/09/21 03:20:46;;;;;;;7.40;4.88;;;12.00;99.90;;;;;;7423772;19;20021;-81
2021/09/21 03:23:17;;;;;;;8.77;4.50;;;11.90;99.90;;;;;;7429036;19;20039;-82
2021/09/21 03:25:49;;;;;;;10.23;4.07;;;11.90;99.90;;;;;;7428323;19;20034;-81
2021/09/21 03:28:19;;;;;;;6.70;4.45;;;11.90;99.90;;;;;;7423484;19;20020;-81
2021/09/21 03:30:49;;;;;;;11.20;5.00;;;12.10;99.90;;;;;;7420534;19;20013;-82
2021/09/21 03:33:23;;;;;;;10.68;4.60;;;12.30;99.90;;;;;;7424465;19;20018;-82
2021/09/21 03:35:53;;;;;;;8.70;5.00;;;12.30;99.90;;;;;;7424887;19;20017;-81
2021/09/21 03:38:23;;;;;;;8.73;5.35;;;12.30;99.90;;;;;;7423697;19;20003;-82
2021/09/21 03:40:55;;;;;;;9.85;4.95;;;12.40;99.90;;;;;;7422325;19;20539;-83
2021/09/21 03:43:25;;;;;;;11.73;4.53;;;12.30;99.90;;;;;;7423347;19;20017;-83
2021/09/21 03:45:54;;;;;;;11.00;4.88;;;12.40;99.90;;;;;;7419784;19;20043;-81
2021/09/21 03:48:24;;;;;;;11.75;5.10;;;12.20;99.90;;;;;;7416017;19;20027;-83
2021/09/21 03:50:54;;;;;;;7.78;4.65;;;12.20;99.90;;;;;;7417777;19;20349;-82
2021/09/21 03:53:24;;;;;;;11.15;5.20;;;12.20;99.90;;;;;;7419755;19;20025;-81
2021/09/21 03:55:57;;;;;;;9.95;5.57;;;12.20;99.90;;;;;;7422028;19;20017;-81
2021/09/21 03:58:27;;;;;;;9.85;5.13;;;12.20;99.90;;;;;;7422209;19;20022;-82
2021/09/21 04:00:57;;;;;;;8.93;4.88;;;12.20;99.90;;;;;;7417396;19;20027;-81
2021/09/21 04:03:29;;;;;;;10.10;5.85;;;12.10;99.90;;;;;;7417979;19;20015;-82
2021/09/21 04:05:59;;;;;;;10.98;5.47;;;12.10;99.90;;;;;;7420959;19;20018;-82
2021/09/21 04:08:29;;;;;;;14.07;5.38;;;12.10;99.90;;;;;;7421667;19;20047;-82
2021/09/21 04:11:02;;;;;;;10.02;4.85;;;12.00;99.90;;;;;;7425240;19;20023;-82
2021/09/21 04:13:37;;;;;;;16.25;5.32;;;12.00;99.90;;;;;;7421295;19;20018;-83
2021/09/21 04:16:11;;;;;;;8.80;5.10;;;12.10;99.90;;;;;;7415862;19;20035;-82
2021/09/21 04:18:41;;;;;;;15.20;5.25;;;12.10;99.90;;;;;;7422752;19;20061;-82
2021/09/21 04:21:10;;;;;;;14.93;5.07;;;11.90;99.90;;;;;;7425095;19;20016;-80
2021/09/21 04:23:41;;;;;;;9.13;5.07;;;11.80;99.90;;;;;;7420683;19;20015;-81
2021/09/21 04:26:14;;;;;;;11.77;5.68;;;12.00;99.90;;;;;;7422129;19;20013;-81
2021/09/21 04:28:46;;;;;;;15.07;5.97;;;12.10;99.90;;;;;;7425507;19;20010;-81
2021/09/21 04:31:18;;;;;;;9.15;5.28;;;12.10;99.90;;;;;;7426831;19;20445;-82
2021/09/21 04:33:47;;;;;;;12.25;5.47;;;12.00;99.90;;;;;;7426793;19;20047;-81
2021/09/21 04:36:17;;;;;;;11.75;5.50;;;12.10;99.90;;;;;;7430073;19;20093;-81
2021/09/21 04:38:48;;;;;;;9.52;5.47;;;12.00;99.90;;;;;;7428501;19;20078;-82
2021/09/21 04:41:20;;;;;;;11.15;5.38;;;12.00;99.90;;;;;;7428175;19;20048;-80
2021/09/21 04:43:50;;;;;;;13.07;5.10;;;12.00;99.90;;;;;;7428955;19;20015;-82
2021/09/21 04:46:22;;;;;;;10.55;5.45;;;12.00;99.90;;;;;;7426616;19;20011;-81
2021/09/21 04:48:51;;;;;;;8.68;5.32;;;11.80;99.90;;;;;;7424460;19;20553;-81
2021/09/21 04:51:21;;;;;;;11.43;6.47;;;11.80;99.90;;;;;;7428408;19;20003;-81
2021/09/21 04:53:51;;;;;;;11.45;5.55;;;11.70;99.90;;;;;;7427614;19;20007;-81
2021/09/21 04:56:26;;;;;;;11.05;5.55;;;11.70;99.90;;;;;;7432344;19;20014;-81
2021/09/21 04:58:56;;;;;;;9.40;5.60;;;11.70;99.90;;;;;;7428487;19;20038;-82
2021/09/21 05:01:25;;;;;;;13.40;5.40;;;11.80;99.90;;;;;;7423984;19;20020;-81
2021/09/21 05:03:55;;;;;;;8.38;4.68;;;12.00;99.90;;;;;;7425349;19;20024;-82
2021/09/21 05:06:25;;;;;;;9.55;4.90;;;12.00;99.90;;;;;;7428961;19;20015;-82
2021/09/21 05:08:55;;;;;;;14.25;5.75;;;12.00;99.90;;;;;;7425062;19;20022;-82
2021/09/21 05:11:29;;;;;;;7.85;4.40;;;12.00;99.90;;;;;;7424791;19;20019;-82
2021/09/21 05:14:02;;;;;;;15.88;6.03;;;11.90;99.90;;;;;;7423683;19;20019;-80
2021/09/21 05:16:32;;;;;;;14.52;6.22;;;11.80;99.90;;;;;;7421981;19;20022;-81
2021/09/21 05:19:07;;;;;;;15.35;5.32;;;11.80;99.90;;;;;;7424033;19;20031;-81
2021/09/21 05:21:37;;;;;;;13.63;5.88;;;11.90;99.90;;;;;;7425132;19;20014;-82
2021/09/21 05:24:07;;;;;;;10.50;5.25;;;11.90;99.90;;;;;;7424766;19;20027;-83
2021/09/21 05:26:43;;;;;;;12.15;6.15;;;11.80;99.90;;;;;;7426020;19;20019;-83
2021/09/21 05:29:13;;;;;;;12.60;5.07;;;11.80;99.90;;;;;;7422620;19;20047;-83
2021/09/21 05:31:45;;;;;;;20.50;6.50;;;11.80;99.90;;;;;;7427321;19;19998;-82
2021/09/21 05:34:15;;;;;;;16.35;5.22;;;11.80;99.90;;;;;;7425150;19;20010;-82
2021/09/21 05:36:50;;;;;;;13.55;5.45;;;11.90;99.90;;;;;;7423311;19;20388;-82
2021/09/21 05:39:20;;;;;;;12.13;5.80;;;12.00;99.90;;;;;;7420428;19;20014;-82
2021/09/21 05:42:01;;;;;;;8.65;4.57;;;11.90;99.90;;;;;;7421233;19;20022;-82
2021/09/21 05:44:40;;;;;;;12.75;5.18;;;11.90;99.90;;;;;;7422537;19;20011;-83
2021/09/21 05:47:12;;;;;;;11.10;5.75;;;11.90;99.90;;;;;;7420601;19;20022;-81
2021/09/21 05:49:43;;;;;;;11.32;5.53;;;11.90;99.90;;;;;;7420376;19;20022;-81
2021/09/21 05:52:18;;;;;;;8.98;5.40;;;11.90;99.90;;;;;;7419642;19;20018;-81
2021/09/21 05:54:49;;;;;;;11.45;5.70;;;12.00;99.90;;;;;;7421415;19;20006;-81
2021/09/21 05:57:23;;;;;;;12.60;5.50;;;12.00;99.90;;;;;;7419663;19;20014;-82
2021/09/21 05:59:52;;;;;;;10.02;5.82;;;12.10;99.90;;;;;;7424666;19;20018;-82
2021/09/21 06:02:25;;;;;;;11.90;5.50;;;12.20;99.90;;;;;;7425327;19;20014;-81
2021/09/21 06:04:58;;;;;;;12.88;5.45;;;12.30;99.90;;;;;;7422746;19;20017;-81
2021/09/21 06:07:31;;;;;;;12.13;5.95;;;12.40;99.90;;;;;;7426653;19;20022;-82
2021/09/21 06:10:02;;;;;;;10.50;5.57;;;12.50;99.90;;;;;;7425492;19;20016;-80
2021/09/21 06:12:45;;;;;;;10.70;5.60;;;12.50;99.90;;;;;;7427911;19;20361;-80
2021/09/21 06:15:19;;;;;;;33.97;6.70;;;12.50;99.90;;;;;;7430272;19;20002;-82
2021/09/21 06:17:51;;;;;;;13.63;5.65;;;12.50;99.90;;;;;;7423360;19;20037;-81
2021/09/21 06:20:21;;;;;;;13.18;5.80;;;12.50;99.90;;;;;;7417924;19;20014;-80
2021/09/21 06:22:51;;;;;;;10.95;6.40;;;12.60;99.90;;;;;;7425008;19;20014;-81
2021/09/21 06:25:23;;;;;;;11.98;5.85;;;12.60;99.90;;;;;;7426545;19;20011;-82
2021/09/21 06:27:55;;;;;;;11.07;5.78;;;12.80;99.90;;;;;;7420577;19;20027;-82
2021/09/21 06:30:27;;;;;;;11.68;5.35;;;12.80;99.90;;;;;;7429826;19;20006;-81
2021/09/21 06:33:00;;;;;;;12.23;5.65;;;12.70;99.90;;;;;;7430016;19;20038;-81
2021/09/21 06:35:32;;;;;;;11.98;5.70;;;12.60;99.90;;;;;;7427684;19;20455;-82
2021/09/21 06:38:03;;;;;;;11.15;5.88;;;12.60;99.90;;;;;;7426056;19;20013;-82
2021/09/21 06:40:32;;;;;;;16.80;7.55;;;12.50;99.90;;;;;;7428789;19;20412;-78
2021/09/21 06:43:09;;;;;;;14.07;7.13;;;12.70;99.90;;;;;;7416581;19;20366;-79
2021/09/21 06:45:42;;;;;;;21.02;6.80;;;12.90;99.90;;;;;;7407480;19;20018;-78
2021/09/21 06:48:11;;;;;;;10.35;5.55;;;13.00;99.90;;;;;;7408567;19;20082;-79
2021/09/21 06:50:43;;;;;;;13.23;5.95;;;13.00;99.90;;;;;;7412234;19;20030;-78
2021/09/21 06:53:15;;;;;;;14.15;6.78;;;12.90;99.90;;;;;;7409002;19;20006;-78
2021/09/21 06:55:45;;;;;;;9.23;5.75;;;12.90;99.90;;;;;;7414846;19;20025;-78
2021/09/21 06:58:19;;;;;;;16.63;6.55;;;12.80;99.90;;;;;;7418184;19;20020;-79
2021/09/21 07:00:49;;;;;;;10.73;6.05;;;12.80;99.90;;;;;;7420604;19;20011;-79
2021/09/21 07:03:19;;;;;;;13.65;6.00;;;12.70;99.90;;;;;;7415290;19;20019;-79
2021/09/21 07:05:53;;;;;;;14.88;7.63;;;12.80;99.90;;;;;;7410909;19;20007;-77
2021/09/21 07:08:27;;;;;;;12.73;6.53;;;13.00;99.90;;;;;;7405691;19;20013;-79
2021/09/21 07:10:59;;;;;;;12.77;6.57;;;13.10;99.90;;;;;;7404118;19;20017;-77
2021/09/21 07:13:31;;;;;;;11.52;6.78;;;13.20;99.90;;;;;;7416766;19;20078;-78
2021/09/21 07:16:00;;;;;;;13.73;6.47;;;13.40;99.90;;;;;;7418106;19;20013;-78
2021/09/21 07:18:38;;;;;;;12.90;6.00;;;13.50;99.90;;;;;;7409744;19;20018;-79
2021/09/21 07:21:08;;;;;;;10.30;5.45;;;13.60;99.90;;;;;;7415171;19;20047;-80
2021/09/21 07:23:37;;;;;;;11.18;6.00;;;13.70;99.90;;;;;;7412195;19;20010;-77
2021/09/21 07:26:10;;;;;;;11.43;5.40;;;13.80;99.90;;;;;;7409248;19;20026;-78
2021/09/21 07:28:45;;;;;;;15.30;5.50;;;13.90;99.90;;;;;;7416068;19;20051;-80
2021/09/21 07:31:15;;;;;;;10.20;5.40;;;14.00;99.90;;;;;;7415257;19;20014;-78
2021/09/21 07:33:46;;;;;;;14.90;5.63;;;14.10;99.90;;;;;;7410724;19;20018;-79
2021/09/21 07:36:16;;;;;;;15.88;5.97;;;14.20;99.90;;;;;;7412687;19;20114;-81
2021/09/21 07:38:50;;;;;;;13.60;5.68;;;14.20;99.90;;;;;;7410880;19;20006;-76
2021/09/21 07:41:27;;;;;;;8.85;5.32;;;14.30;99.90;;;;;;7412081;19;20018;-77
2021/09/21 07:43:59;;;;;;;11.23;6.00;;;14.50;99.90;;;;;;7411910;19;20007;-78
2021/09/21 07:46:36;;;;;;;14.50;5.97;;;14.60;99.90;;;;;;7409107;19;20006;-77
2021/09/21 07:49:05;;;;;;;16.00;5.72;;;14.70;99.90;;;;;;7412518;19;20159;-78
2021/09/21 07:51:52;;;;;;;11.25;6.00;;;14.80;99.90;;;;;;7411018;19;20024;-80
2021/09/21 07:54:27;;;;;;;10.27;5.78;;;14.50;99.90;;;;;;7405595;19;20020;-78
2021/09/21 07:56:56;;;;;;;10.75;5.88;;;14.40;99.90;;;;;;7405215;19;20006;-77
2021/09/21 07:59:31;;;;;;;10.18;5.35;;;14.40;99.90;;;;;;7405042;19;20040;-79
2021/09/21 08:02:21;;;;;;;9.65;5.65;;;14.50;99.90;;;;;;7415252;19;20025;-79
2021/09/21 08:04:52;;;;;;;11.20;5.55;;;14.70;99.90;;;;;;7410570;19;20324;-78
2021/09/21 08:07:25;;;;;;;8.90;5.07;;;14.90;99.90;;;;;;7411998;19;20010;-79
2021/09/21 08:09:58;;;;;;;10.50;4.85;;;15.20;99.90;;;;;;7409957;19;20018;-79
2021/09/21 08:12:28;;;;;;;9.85;5.90;;;15.40;99.90;;;;;;7410408;19;20011;-80
2021/09/21 08:15:06;;;;;;;10.20;5.45;;;15.50;99.90;;;;;;7411730;19;20022;-79
2021/09/21 08:17:39;;;;;;;10.90;5.38;;;15.50;99.90;;;;;;7406735;19;20015;-80
2021/09/21 08:20:15;;;;;;;10.77;5.10;;;15.60;99.90;;;;;;7407577;19;20026;-78
2021/09/21 08:22:46;;;;;;;7.82;4.47;;;15.80;99.90;;;;;;7409434;19;20071;-79
2021/09/21 08:25:18;;;;;;;10.25;5.43;;;16.00;99.90;;;;;;7407861;19;20017;-79
2021/09/21 08:27:50;;;;;;;9.13;5.45;;;16.10;99.90;;;;;;7405677;19;20014;-77
2021/09/21 08:30:24;;;;;;;11.70;5.45;;;16.20;99.90;;;;;;7401966;19;20081;-79
2021/09/21 08:32:54;;;;;;;9.90;4.85;;;16.20;99.90;;;;;;7405229;19;20015;-79
2021/09/21 08:35:24;;;;;;;10.70;5.03;;;16.30;99.90;;;;;;7404926;19;20014;-83
2021/09/21 08:37:54;;;;;;;10.27;5.07;;;16.30;99.90;;;;;;7405105;19;20022;-79
2021/09/21 08:40:24;;;;;;;10.50;4.45;;;16.30;99.90;;;;;;7407563;19;20017;-85
2021/09/21 08:42:58;;;;;;;16.17;5.93;;;16.30;99.90;;;;;;7404114;19;20016;-85
2021/09/21 08:45:34;;;;;;;11.75;5.97;;;16.30;99.90;;;;;;7405025;19;20025;-84
2021/09/21 08:48:05;;;;;;;14.48;5.60;;;16.30;99.90;;;;;;7403877;19;20015;-85
2021/09/21 08:50:36;;;;;;;9.05;5.10;;;16.20;99.90;;;;;;7404101;19;20022;-85
2021/09/21 08:53:07;;;;;;;12.90;6.07;;;16.20;99.90;;;;;;7406428;19;20011;-85
2021/09/21 08:55:38;;;;;;;9.20;4.97;;;16.30;99.80;;;;;;7407391;19;20041;-87
2021/09/21 08:58:13;;;;;;;8.85;5.00;;;16.30;99.50;;;;;;7405064;19;20471;-82
2021/09/21 09:00:55;;;;;;;8.48;4.80;;;16.30;99.00;;;;;;7406463;19;20110;-84
2021/09/21 09:03:25;;;;;;;9.25;4.70;;;16.30;99.10;;;;;;7407327;19;20014;-87
2021/09/21 09:05:57;;;;;;;10.35;4.75;;;16.30;98.90;;;;;;7409203;19;20423;-85
2021/09/21 09:08:31;;;;;;;10.18;4.40;;;16.30;98.50;;;;;;7407809;19;20019;-87
2021/09/21 09:11:13;;;;;;;10.80;4.45;;;16.40;98.80;;;;;;7404496;19;20018;-87
2021/09/21 09:13:45;;;;;;;8.70;4.63;;;16.50;98.60;;;;;;7405968;19;20387;-88
2021/09/21 09:16:20;;;;;;;9.25;3.95;;;16.60;98.10;;;;;;7410305;19;20417;-85
2021/09/21 09:19:03;;;;;;;5.80;3.63;;;16.70;97.80;;;;;;7406509;19;20070;-85
2021/09/21 09:21:35;;;;;;;9.90;4.28;;;16.80;97.70;;;;;;7402505;19;20451;-87
2021/09/21 09:24:21;;;;;;;;;;;;;;;;;;;;;
2021/09/21 09:26:51;;;;;;;11.80;5.22;;;17.00;97.10;;;;;;7411041;19;20014;-87
2021/09/21 09:29:21;;;;;;;12.15;4.97;;;17.10;96.60;;;;;;7410248;19;20007;-86
2021/09/21 09:31:53;;;;;;;7.53;3.85;;;17.20;96.10;;;;;;7412817;19;20051;-87
2021/09/21 09:34:25;;;;;;;11.27;3.60;;;17.20;95.90;;;;;;7418705;19;20010;-84
2021/09/21 09:36:58;;;;;;;9.52;4.43;;;17.50;95.50;;;;;;7418076;19;20051;-86
2021/09/21 09:39:42;;;;;;;9.25;4.13;;;18.00;94.50;;;;;;7419213;19;20038;-87
2021/09/21 09:42:12;;;;;;;8.43;3.92;;;18.50;92.70;;;;;;7420441;19;20451;-87
2021/09/21 09:44:52;;;;;;;6.30;4.18;;;19.20;92.00;;;;;;7427173;19;20019;-83
2021/09/21 09:47:28;;;;;;;7.28;3.60;;;19.30;90.40;;;;;;7426651;19;20034;-84
2021/09/21 09:49:58;;;;;;;9.38;3.72;;;19.70;90.10;;;;;;7419515;19;20090;-87
2021/09/21 09:52:42;;;;;;;8.88;3.83;;;19.70;89.90;;;;;;7407610;19;20018;-85
2021/09/21 09:55:15;;;;;;;7.93;3.47;;;19.40;89.00;;;;;;7425125;19;20052;-86
2021/09/21 09:57:45;;;;;;;5.97;3.40;;;19.00;89.40;;;;;;7418289;19;20017;-86
2021/09/21 10:00:15;;;;;;;6.68;3.22;;;18.60;89.60;;;;;;7410519;19;20527;-87
2021/09/21 10:02:49;;;;;;;5.38;3.17;;;18.20;90.10;;;;;;7418385;19;20031;-86
2021/09/21 10:05:19;;;;;;;7.22;2.63;;;18.00;89.50;;;;;;7417551;19;20022;-87
2021/09/21 10:07:52;;;;;;;7.95;2.78;;;17.80;87.70;;;;;;7423788;19;20022;-86
2021/09/21 10:10:24;;;;;;;5.25;2.55;;;17.60;87.30;;;;;;7425287;19;20015;-88
2021/09/21 10:12:55;;;;;;;6.45;3.25;;;17.60;88.10;;;;;;7413198;19;20018;-86
2021/09/21 10:15:27;;;;;;;6.78;2.83;;;17.50;88.30;;;;;;7411586;19;20014;-86
2021/09/21 10:18:00;;;;;;;8.85;3.78;;;17.60;89.30;;;;;;7410827;19;20412;-85
2021/09/21 10:20:36;;;;;;;6.32;3.28;;;18.00;89.00;;;;;;7412986;19;20452;-85
2021/09/21 10:23:19;;;;;;;8.13;4.80;;;18.90;87.30;;;;;;7417315;19;20014;-86
2021/09/21 10:25:58;;;;;;;10.52;4.05;;;19.70;84.00;;;;;;7423566;19;20064;-84
2021/09/21 10:28:29;;;;;;;12.45;3.25;;;20.20;80.50;;;;;;7422723;19;20022;-85
2021/09/21 10:31:02;;;;;;;7.45;2.90;;;20.40;79.60;;;;;;7420825;19;20576;-83
2021/09/21 10:33:35;;;;;;;7.07;2.30;;;20.50;77.70;;;;;;7418124;19;20086;-84
2021/09/21 10:36:06;;;;;;;6.22;2.63;;;20.90;76.20;;;;;;7422060;19;20019;-84
2021/09/21 10:38:36;;;;;;;8.95;2.90;;;20.70;75.10;;;;;;7425138;19;20094;-84
2021/09/21 10:41:11;;;;;;;5.55;2.72;;;20.40;74.80;;;;;;7427407;19;20060;-83
2021/09/21 10:43:41;;;;;;;6.22;3.38;;;19.70;76.30;;;;;;7428359;19;20014;-84
2021/09/21 10:46:12;;;;;;;7.13;2.80;;;18.90;77.80;;;;;;7421995;19;20048;-87
2021/09/21 10:48:48;;;;;;;5.60;2.88;;;18.20;79.40;;;;;;7415612;19;20037;-86
2021/09/21 10:51:26;;;;;;;7.68;2.90;;;17.60;81.60;;;;;;7401708;19;20026;-86
2021/09/21 10:54:06;;;;;;;5.15;3.15;;;17.20;83.00;;;;;;7406808;19;20043;-86
2021/09/21 10:56:42;;;;;;;6.32;3.10;;;16.80;85.00;;;;;;7409809;19;20018;-88
2021/09/21 10:59:19;;;;;;;5.95;2.53;;;16.70;85.80;;;;;;7411436;19;20081;-85
2021/09/21 11:01:58;;;;;;;4.95;3.08;;;16.50;86.70;;;;;;7406064;19;20365;-87
2021/09/21 11:04:46;;;;;;;6.47;3.00;;;16.50;87.90;;;;;;7406536;19;20010;-87
2021/09/21 11:07:17;;;;;;;11.43;3.00;;;16.50;88.50;;;;;;7406188;19;20387;-86
2021/09/21 11:09:53;;;;;;;6.55;2.90;;;16.50;88.30;;;;;;7423674;19;20018;-83
2021/09/21 11:12:27;;;;;;;7.50;2.65;;;16.40;87.90;;;;;;7425281;19;20018;-86
2021/09/21 11:14:59;;;;;;;6.80;2.83;;;16.40;88.20;;;;;;7409483;19;20014;-85
2021/09/21 11:17:30;;;;;;;11.55;3.55;;;16.60;88.50;;;;;;7408000;19;20303;-85
2021/09/21 11:20:06;;;;;;;8.10;3.17;;;16.80;89.00;;;;;;7406023;19;20011;-87
2021/09/21 11:22:40;;;;;;;8.25;4.63;;;16.90;89.50;;;;;;7402627;19;20038;-88
2021/09/21 11:25:14;;;;;;;8.68;3.88;;;16.90;89.90;;;;;;7403353;19;20460;-86
2021/09/21 11:27:50;;;;;;;10.38;4.20;;;17.10;89.80;;;;;;7399520;19;20014;-87
2021/09/21 11:30:21;;;;;;;7.43;3.70;;;17.20;89.30;;;;;;7396862;19;20279;-80
2021/09/21 11:32:50;;;;;;;10.02;3.67;;;17.30;89.30;;;;;;7400811;19;20346;-82
2021/09/21 11:35:25;;;;;;;8.98;3.72;;;17.50;88.70;;;;;;7402904;19;20070;-83
2021/09/21 11:37:57;;;;;;;8.60;3.80;;;17.80;88.30;;;;;;7402413;19;20014;-83
2021/09/21 11:40:29;;;;;;;10.40;3.72;;;17.90;86.70;;;;;;7400468;19;20030;-80
2021/09/21 11:42:59;;;;;;;9.23;4.00;;;18.00;87.10;;;;;;7399133;19;20325;-83
2021/09/21 11:45:35;;;;;;;6.13;3.28;;;18.00;86.00;;;;;;7399951;19;20017;-79
2021/09/21 11:48:10;;;;;;;8.35;3.53;;;18.20;86.00;;;;;;7397663;19;20428;-82
2021/09/21 11:50:53;;;;;;;7.13;3.88;;;18.30;83.80;;;;;;7399584;19;20023;-84
2021/09/21 11:53:26;;;;;;;11.18;3.92;;;17.90;83.80;;;;;;7398014;19;20015;-89
2021/09/21 11:55:58;;;;;;;8.43;3.42;;;17.70;84.90;;;;;;7399773;19;20088;-85
2021/09/21 11:58:29;;;;;;;7.03;3.30;;;17.80;84.40;;;;;;7398656;19;20014;-84
2021/09/21 12:01:02;;;;;;;9.13;3.90;;;18.10;82.60;;;;;;7402046;19;20389;-82
2021/09/21 12:03:39;;;;;;;6.75;3.10;;;19.10;80.50;;;;;;7400981;19;20015;-82
2021/09/21 12:06:15;;;;;;;8.93;3.05;;;19.70;78.70;;;;;;7400340;19;20014;-82
2021/09/21 12:08:51;;;;;;;7.75;3.53;;;19.70;77.70;;;;;;7400061;19;20018;-84
2021/09/21 12:11:21;;;;;;;8.65;3.70;;;20.20;77.10;;;;;;7398230;19;20015;-83
2021/09/21 12:13:51;;;;;;;8.82;3.63;;;20.50;75.40;;;;;;7399853;19;20022;-83
2021/09/21 12:16:28;;;;;;;12.50;4.07;;;20.70;74.50;;;;;;7398598;19;20529;-82
2021/09/21 12:19:00;;;;;;;8.10;3.50;;;20.60;74.10;;;;;;7401907;19;20015;-83
2021/09/21 12:21:35;;;;;;;6.50;2.88;;;20.70;73.80;;;;;;7402295;19;20045;-83
2021/09/21 12:24:11;;;;;;;13.50;3.92;;;20.70;72.40;;;;;;7402192;19;20018;-81
2021/09/21 12:26:41;;;;;;;8.07;3.33;;;20.50;72.00;;;;;;7397057;19;20070;-83
2021/09/21 12:29:21;;;;;;;9.15;3.70;;;20.40;71.90;;;;;;7401510;19;20333;-81
2021/09/21 12:31:57;;;;;;;7.38;3.15;;;20.10;73.00;;;;;;7405493;19;20331;-82
2021/09/21 12:34:36;;;;;;;7.75;3.22;;;20.10;73.00;;;;;;7407387;19;20709;-83
2021/09/21 12:37:14;;;;;;;7.85;3.60;;;20.10;73.40;;;;;;7404999;19;20021;-82
2021/09/21 12:39:58;;;;;;;8.95;3.72;;;19.90;73.50;;;;;;7406058;19;20011;-84
2021/09/21 12:42:49;;;;;;;9.48;3.92;;;19.80;73.40;;;;;;7406357;19;20013;-83
2021/09/21 12:45:21;;;;;;;8.80;4.22;;;19.30;74.40;;;;;;7415558;19;20019;-81
2021/09/21 12:47:58;;;;;;;7.68;3.58;;;19.30;75.00;;;;;;7427440;19;20034;-82
2021/09/21 12:50:31;;;;;;;7.90;3.55;;;19.60;75.10;;;;;;7419774;19;20078;-84
2021/09/21 12:53:07;;;;;;;8.90;3.67;;;20.70;73.10;;;;;;7412902;19;20014;-84
2021/09/21 12:55:42;;;;;;;7.75;3.80;;;21.30;70.60;;;;;;7420335;19;20048;-83
2021/09/21 12:58:15;;;;;;;9.23;4.38;;;19.50;72.90;;;;;;7421699;19;20015;-84
2021/09/21 13:00:48;;;;;;;6.40;3.58;;;19.40;74.50;;;;;;7421518;19;20010;-81
2021/09/21 13:03:19;;;;;;;5.70;2.92;;;18.70;76.00;;;;;;7425064;19;20094;-82
2021/09/21 13:06:10;;;;;;;8.07;3.28;;;18.00;74.90;;;;;;7422238;19;20002;-79
2021/09/21 13:08:52;;;;;;;8.07;2.58;;;17.80;76.30;;;;;;7422979;19;20015;-82
2021/09/21 13:11:22;;;;;;;10.20;2.63;;;17.60;75.10;;;;;;7425414;19;20023;-81
2021/09/21 13:13:54;;;;;;;7.78;2.53;;;17.70;71.90;;;;;;7418459;19;20089;-85
2021/09/21 13:16:23;;;;;;;5.38;2.50;;;18.00;72.40;;;;;;7416412;19;20042;-85
2021/09/21 13:19:01;;;;;;;5.68;2.40;;;18.30;72.40;;;;;;7421311;19;20010;-87
2021/09/21 13:21:46;;;;;;;6.32;2.90;;;18.50;70.00;;;;;;7430664;19;20030;-86
2021/09/21 13:24:21;;;;;;;7.38;2.17;;;18.70;70.20;;;;;;7418779;19;20014;-83
2021/09/21 13:27:03;;;;;;;5.38;2.28;;;18.90;68.80;;;;;;7414619;19;20018;-85